createdAt,value
2023-02-24T00:02:15.173Z,30.25
2023-02-24T00:04:44.121Z,30.77
2023-02-24T00:07:12.774Z,30.50
2023-02-24T00:09:40.433Z,29.98
2023-02-24T00:12:11.518Z,30.63
2023-02-24T00:14:41.060Z,30.42
2023-02-24T00:17:08.896Z,32.00
2023-02-24T00:19:36.975Z,31.42
2023-02-24T00:22:06.005Z,31.45
2023-02-24T00:24:33.612Z,31.77
2023-02-24T00:27:07.495Z,30.50
2023-02-24T00:29:39.823Z,33.10
2023-02-24T00:32:12.644Z,30.40
2023-02-24T00:34:41.620Z,33.95
2023-02-24T00:37:09.375Z,32.45
2023-02-24T00:39:41.382Z,34.67
2023-02-24T00:42:11.823Z,33.38
2023-02-24T00:44:41.457Z,33.53
2023-02-24T00:47:10.412Z,35.42
2023-02-24T00:49:43.149Z,35.10
2023-02-24T00:52:21.057Z,34.25
2023-02-24T00:54:49.853Z,36.58
2023-02-24T00:57:18.659Z,34.78
2023-02-24T00:59:47.877Z,35.20
2023-02-24T01:02:15.794Z,35.50
2023-02-24T01:04:45.323Z,35.20
2023-02-24T01:07:14.407Z,35.97
2023-02-24T01:09:44.162Z,36.65
2023-02-24T01:12:38.562Z,36.45
2023-02-24T01:15:09.166Z,34.28
2023-02-24T01:17:37.991Z,35.45
2023-02-24T01:20:19.832Z,33.92
2023-02-24T01:22:49.691Z,36.65
2023-02-24T01:25:20.142Z,37.47
2023-02-24T01:27:47.952Z,37.97
2023-02-24T01:30:18.395Z,39.10
2023-02-24T01:32:47.744Z,37.30
2023-02-24T01:35:15.737Z,37.87
2023-02-24T01:37:43.280Z,36.72
2023-02-24T01:40:18.080Z,37.03
2023-02-24T01:42:47.530Z,40.17
2023-02-24T01:45:18.740Z,39.05
2023-02-24T01:47:47.506Z,37.78
2023-02-24T01:50:16.251Z,39.65
2023-02-24T01:52:47.343Z,38.80
2023-02-24T01:55:16.746Z,38.35
2023-02-24T01:57:46.218Z,38.03
2023-02-24T02:00:37.499Z,38.70
2023-02-24T02:03:12.443Z,38.03
2023-02-24T02:05:41.316Z,37.63
2023-02-24T02:08:09.373Z,39.65
2023-02-24T02:10:40.749Z,37.50
2023-02-24T02:13:08.251Z,38.38
2023-02-24T02:15:40.673Z,37.05
2023-02-24T02:18:21.138Z,38.30
2023-02-24T02:20:53.783Z,38.22
2023-02-24T02:23:58.440Z,38.05
2023-02-24T02:26:44.202Z,38.13
2023-02-24T02:29:36.739Z,38.53
2023-02-24T02:32:35.157Z,39.25
2023-02-24T02:35:09.356Z,40.00
2023-02-24T02:37:43.080Z,38.95
2023-02-24T02:40:19.855Z,41.60
2023-02-24T02:43:02.279Z,41.72
2023-02-24T02:45:40.455Z,40.53
2023-02-24T02:48:20.739Z,42.10
2023-02-24T02:51:04.181Z,41.60
2023-02-24T02:53:42.590Z,40.75
2023-02-24T02:56:18.156Z,41.17
2023-02-24T02:58:49.212Z,40.97
2023-02-24T03:01:21.014Z,42.92
2023-02-24T03:03:53.378Z,42.63
2023-02-24T03:06:33.092Z,42.47
2023-02-24T03:09:16.141Z,41.45
2023-02-24T03:11:53.779Z,39.10
2023-02-24T03:14:24.823Z,41.10
2023-02-24T03:16:53.136Z,41.05
2023-02-24T03:19:26.626Z,41.13
2023-02-24T03:22:25.158Z,40.58
2023-02-24T03:24:52.979Z,37.80
2023-02-24T03:27:39.855Z,39.72
2023-02-24T03:30:16.946Z,40.00
2023-02-24T03:33:19.718Z,38.53
2023-02-24T03:35:51.198Z,39.55
2023-02-24T03:38:20.047Z,40.45
2023-02-24T03:40:49.235Z,39.00
2023-02-24T03:43:30.576Z,39.33
2023-02-24T03:46:00.471Z,38.60
2023-02-24T03:48:28.651Z,38.30
2023-02-24T03:50:59.457Z,37.35
2023-02-24T03:56:34.227Z,39.20
2023-02-24T03:59:25.517Z,38.42
2023-02-24T04:02:00.445Z,37.28
2023-02-24T04:05:03.806Z,37.75
2023-02-24T04:07:52.085Z,38.25
2023-02-24T04:10:34.141Z,38.40
2023-02-24T04:13:38.143Z,35.63
2023-02-24T04:16:18.373Z,38.05
2023-02-24T04:18:50.429Z,36.25
2023-02-24T04:21:20.311Z,38.63
2023-02-24T04:23:48.133Z,36.22
2023-02-24T04:26:17.088Z,36.15
2023-02-24T04:28:48.637Z,35.88
2023-02-24T04:31:18.472Z,36.35
2023-02-24T04:33:50.343Z,35.58
2023-02-24T04:36:21.950Z,37.53
2023-02-24T04:38:49.868Z,36.63
2023-02-24T04:41:21.962Z,37.25
2023-02-24T04:43:53.483Z,35.50
2023-02-24T04:46:21.129Z,36.00
2023-02-24T04:48:48.629Z,35.92
2023-02-24T04:51:16.053Z,34.78
2023-02-24T04:53:43.294Z,36.60
2023-02-24T04:56:10.613Z,37.15
2023-02-24T04:58:39.727Z,36.33
2023-02-24T05:01:11.118Z,36.38
2023-02-24T05:03:42.359Z,36.05
2023-02-24T05:06:17.258Z,35.65
2023-02-24T05:08:45.116Z,35.58
2023-02-24T05:11:15.987Z,37.80
2023-02-24T05:13:47.176Z,36.42
2023-02-24T05:16:17.527Z,36.75
2023-02-24T05:18:45.972Z,37.90
2023-02-24T05:21:34.413Z,37.03
2023-02-24T05:24:06.777Z,34.97
2023-02-24T05:26:37.319Z,37.35
2023-02-24T05:31:32.552Z,35.15
2023-02-24T05:34:05.928Z,36.25
2023-02-24T05:36:38.948Z,37.95
2023-02-24T05:39:12.296Z,38.05
2023-02-24T05:41:42.449Z,38.80
2023-02-24T05:46:42.910Z,37.05
2023-02-24T05:49:23.421Z,42.38
2023-02-24T05:51:55.238Z,42.30
2023-02-24T05:54:31.134Z,42.45
2023-02-24T05:57:11.836Z,43.83
2023-02-24T05:59:41.304Z,42.22
2023-02-24T06:02:11.420Z,43.70
2023-02-24T06:07:13.952Z,39.83
2023-02-24T06:09:43.109Z,42.25
2023-02-24T06:12:11.577Z,41.90
2023-02-24T06:14:39.091Z,42.05
2023-02-24T06:17:06.437Z,41.80
2023-02-24T06:19:34.012Z,42.03
2023-02-24T06:22:01.871Z,40.42
2023-02-24T06:24:31.084Z,40.92
2023-02-24T06:27:09.819Z,39.47
2023-02-24T06:29:37.975Z,42.10
2023-02-24T06:32:11.585Z,38.47
2023-02-24T06:34:39.720Z,41.97
2023-02-24T06:37:08.962Z,40.70
2023-02-24T06:39:37.022Z,41.23
2023-02-24T06:42:05.876Z,58.72
2023-02-24T06:44:34.449Z,45.75
2023-02-24T06:47:02.742Z,39.97
2023-02-24T06:49:30.221Z,38.35
2023-02-24T06:51:57.764Z,39.45
2023-02-24T06:54:29.052Z,37.58
2023-02-24T06:57:08.242Z,37.15
2023-02-24T06:59:36.061Z,37.10
2023-02-24T07:02:15.184Z,54.30
2023-02-24T07:04:45.467Z,39.70
2023-02-24T07:07:14.686Z,38.75
2023-02-24T07:09:42.713Z,36.72
2023-02-24T07:12:11.193Z,36.80
2023-02-24T07:14:38.743Z,37.70
2023-02-24T07:17:06.616Z,37.47
2023-02-24T07:19:34.582Z,37.92
2023-02-24T07:22:03.925Z,37.03
2023-02-24T07:24:36.919Z,37.08
2023-02-24T07:27:22.561Z,37.15
2023-02-24T07:29:52.978Z,36.72
2023-02-24T07:32:25.668Z,36.20
2023-02-24T07:34:53.289Z,36.13
2023-02-24T07:37:21.195Z,36.38
2023-02-24T07:39:50.161Z,36.88
2023-02-24T07:42:17.413Z,35.80
2023-02-24T07:44:48.220Z,38.90
2023-02-24T07:47:16.420Z,35.03
2023-02-24T07:49:45.238Z,37.55
2023-02-24T07:52:12.845Z,37.50
2023-02-24T07:54:40.571Z,36.17
2023-02-24T07:57:13.359Z,35.95
2023-02-24T07:59:45.207Z,37.03
2023-02-24T08:02:13.894Z,35.90
2023-02-24T08:04:44.596Z,40.00
2023-02-24T08:07:14.719Z,34.60
2023-02-24T08:09:45.480Z,35.45
2023-02-24T08:12:21.983Z,35.35
2023-02-24T08:14:53.515Z,35.10
2023-02-24T08:17:26.517Z,37.00
2023-02-24T08:20:15.791Z,35.17
2023-02-24T08:22:46.802Z,33.97
2023-02-24T08:25:19.421Z,33.40
2023-02-24T08:28:06.713Z,32.72
2023-02-24T08:30:40.703Z,32.95
2023-02-24T08:33:11.419Z,33.67
2023-02-24T08:35:45.121Z,34.35
2023-02-24T08:38:18.163Z,32.70
2023-02-24T08:40:51.375Z,34.10
2023-02-24T08:43:30.760Z,33.28
2023-02-24T08:46:13.593Z,33.00
2023-02-24T08:48:43.533Z,33.15
2023-02-24T08:51:15.991Z,34.55
2023-02-24T08:53:46.823Z,32.53
2023-02-24T08:56:24.081Z,33.42
2023-02-24T08:58:57.701Z,33.97
2023-02-24T09:01:27.950Z,32.78
2023-02-24T09:03:58.133Z,33.92
2023-02-24T09:07:11.589Z,33.22
2023-02-24T09:09:42.376Z,32.60
2023-02-24T09:12:22.031Z,31.13
2023-02-24T09:14:57.156Z,32.42
2023-02-24T09:18:02.030Z,30.85
2023-02-24T09:20:47.939Z,31.48
2023-02-24T09:23:21.116Z,31.48
2023-02-24T09:25:54.369Z,30.73
2023-02-24T09:28:26.922Z,30.55
2023-02-24T09:30:57.242Z,30.00
2023-02-24T09:33:28.689Z,30.85
2023-02-24T09:36:10.319Z,30.85
2023-02-24T09:38:58.273Z,30.55
2023-02-24T09:41:54.648Z,30.23
2023-02-24T09:44:40.296Z,28.50
2023-02-24T09:47:31.099Z,29.55
2023-02-24T09:50:04.531Z,30.20
2023-02-24T09:52:41.550Z,29.42
2023-02-24T09:55:46.870Z,29.73
2023-02-24T09:58:43.299Z,28.00
2023-02-24T10:01:33.728Z,28.17
2023-02-24T10:06:49.808Z,26.88
2023-02-24T10:09:26.647Z,27.58
2023-02-24T10:12:04.544Z,27.92
2023-02-24T10:15:15.585Z,27.73
2023-02-24T10:17:47.394Z,25.25
2023-02-24T10:20:39.701Z,27.05
2023-02-24T10:23:29.814Z,25.17
2023-02-24T10:26:07.199Z,24.90
2023-02-24T10:28:57.457Z,24.70
2023-02-24T10:34:01.965Z,22.70
2023-02-24T10:36:35.610Z,22.77
2023-02-24T10:39:25.893Z,20.90
2023-02-24T10:41:58.730Z,21.05
2023-02-24T10:44:36.384Z,20.95
2023-02-24T10:47:13.299Z,21.27
2023-02-24T10:49:57.970Z,22.15
2023-02-24T10:52:37.486Z,20.42
2023-02-24T10:55:47.186Z,21.13
2023-02-24T10:58:28.362Z,18.92
2023-02-24T11:01:07.262Z,20.13
2023-02-24T11:03:46.401Z,20.05
2023-02-24T11:06:41.927Z,19.27
2023-02-24T11:09:29.360Z,18.95
2023-02-24T11:12:21.341Z,21.30
2023-02-24T11:15:18.498Z,18.95
2023-02-24T11:17:58.337Z,18.80
2023-02-24T11:20:48.005Z,18.92
2023-02-24T11:23:38.805Z,18.93
2023-02-24T11:26:17.228Z,19.60
2023-02-24T11:28:56.566Z,17.48
2023-02-24T11:31:56.001Z,17.27
2023-02-24T11:34:25.287Z,16.70
2023-02-24T11:37:09.364Z,18.85
2023-02-24T11:39:55.416Z,18.30
2023-02-24T11:42:27.325Z,19.25
2023-02-24T11:45:01.694Z,16.98
2023-02-24T11:47:33.858Z,16.45
2023-02-24T11:50:26.465Z,16.73
2023-02-24T11:52:56.097Z,17.35
2023-02-24T11:55:32.588Z,16.20
2023-02-24T11:58:03.498Z,16.17
2023-02-24T12:00:34.000Z,15.95
2023-02-24T12:03:13.752Z,16.17
2023-02-24T12:05:44.867Z,15.70
2023-02-24T12:08:22.527Z,15.00
2023-02-24T12:10:52.573Z,15.90
2023-02-24T12:16:12.923Z,15.05
2023-02-24T12:18:52.934Z,14.57
2023-02-24T12:21:24.673Z,16.40
2023-02-24T12:23:55.660Z,15.65
2023-02-24T12:26:27.352Z,15.65
2023-02-24T12:29:22.897Z,17.40
2023-02-24T12:32:16.123Z,16.05
2023-02-24T12:34:51.780Z,14.45
2023-02-24T12:37:37.271Z,14.95
2023-02-24T12:40:31.932Z,16.45
2023-02-24T12:43:04.820Z,14.50
2023-02-24T12:45:54.122Z,15.13
2023-02-24T12:48:50.346Z,13.60
2023-02-24T12:51:42.816Z,14.63
2023-02-24T12:54:13.292Z,14.57
2023-02-24T12:56:54.685Z,14.52
2023-02-24T12:59:26.465Z,13.60
2023-02-24T13:02:00.344Z,13.32
2023-02-24T13:04:45.636Z,14.38
2023-02-24T13:07:37.042Z,14.93
2023-02-24T13:10:13.205Z,12.98
2023-02-24T13:12:55.019Z,12.23
2023-02-24T13:15:25.476Z,12.60
2023-02-24T13:17:57.000Z,13.00
2023-02-24T13:20:36.576Z,12.40
2023-02-24T13:23:20.605Z,11.40
2023-02-24T13:25:53.035Z,11.73
2023-02-24T13:28:33.366Z,12.30
2023-02-24T13:31:14.131Z,11.50
2023-02-24T13:33:43.921Z,11.38
2023-02-24T13:36:23.675Z,10.82
2023-02-24T13:39:46.590Z,11.35
2023-02-24T13:42:20.333Z,9.75
2023-02-24T13:44:52.071Z,10.70
2023-02-24T13:47:43.173Z,10.60
2023-02-24T13:50:27.717Z,10.10
2023-02-24T13:53:10.315Z,10.35
2023-02-24T13:56:05.136Z,9.98
2023-02-24T13:59:06.765Z,9.77
2023-02-24T14:01:56.407Z,9.25
2023-02-24T14:04:30.941Z,9.48
2023-02-24T14:07:05.210Z,9.35
2023-02-24T14:10:02.647Z,10.07
2023-02-24T14:12:32.801Z,10.63
2023-02-24T14:15:00.636Z,9.73
2023-02-24T14:17:33.046Z,9.38
2023-02-24T14:20:09.628Z,8.63
2023-02-24T14:22:48.835Z,9.75
2023-02-24T14:25:18.843Z,9.93
2023-02-24T14:27:49.771Z,9.77
2023-02-24T14:30:38.799Z,9.55
2023-02-24T14:33:08.042Z,9.23
2023-02-24T14:35:43.300Z,9.70
2023-02-24T14:38:31.966Z,7.72
2023-02-24T14:40:59.577Z,8.63
2023-02-24T14:43:27.357Z,9.20
2023-02-24T14:46:06.278Z,8.48
2023-02-24T14:51:24.251Z,7.97
2023-02-24T14:53:57.904Z,7.45
2023-02-24T14:56:30.694Z,6.68
2023-02-24T14:59:04.509Z,6.53
2023-02-24T15:01:38.311Z,6.55
2023-02-24T15:04:43.648Z,6.22
2023-02-24T15:07:20.060Z,6.80
2023-02-24T15:09:48.600Z,6.07
2023-02-24T15:12:19.000Z,7.13
2023-02-24T15:15:01.212Z,6.40
2023-02-24T15:17:29.341Z,5.55
2023-02-24T15:19:56.894Z,6.55
2023-02-24T15:22:33.560Z,6.07
2023-02-24T15:25:24.033Z,6.65
2023-02-24T15:27:59.532Z,8.88
2023-02-24T15:30:40.897Z,7.53
2023-02-24T15:33:21.240Z,7.07
2023-02-24T15:35:51.376Z,6.22
2023-02-24T15:38:24.076Z,5.80
2023-02-24T15:40:53.875Z,5.93
2023-02-24T15:43:37.237Z,6.93
2023-02-24T15:46:28.755Z,6.93
2023-02-24T15:48:58.220Z,5.60
2023-02-24T15:51:37.881Z,6.85
2023-02-24T15:54:08.608Z,6.10
2023-02-24T15:56:36.513Z,5.80
2023-02-24T15:59:03.841Z,7.13
2023-02-24T16:01:31.489Z,5.35
2023-02-24T16:04:04.891Z,5.28
2023-02-24T16:06:33.939Z,5.72
2023-02-24T16:09:05.315Z,6.28
2023-02-24T16:11:36.716Z,6.32
2023-02-24T16:14:04.383Z,5.63
2023-02-24T16:16:33.506Z,5.50
2023-02-24T16:19:01.054Z,5.30
2023-02-24T16:21:28.527Z,5.32
2023-02-24T16:23:56.307Z,5.03
2023-02-24T16:26:27.390Z,4.55
2023-02-24T16:28:57.110Z,4.43
2023-02-24T16:31:26.761Z,4.55
2023-02-24T16:33:56.086Z,5.25
2023-02-24T16:36:25.528Z,5.57
2023-02-24T16:38:53.229Z,4.70
2023-02-24T16:41:21.122Z,5.32
2023-02-24T16:43:48.597Z,4.88
2023-02-24T16:46:18.582Z,5.30
2023-02-24T16:48:48.281Z,5.72
2023-02-24T16:51:16.297Z,5.68
2023-02-24T16:53:43.884Z,5.40
2023-02-24T16:56:12.609Z,5.00
2023-02-24T16:58:39.992Z,6.07
2023-02-24T17:01:07.664Z,4.78
2023-02-24T17:03:42.771Z,7.43
2023-02-24T17:06:10.227Z,5.72
2023-02-24T17:08:37.886Z,4.60
2023-02-24T17:11:05.412Z,4.03
2023-02-24T17:13:32.807Z,8.10
2023-02-24T17:16:00.293Z,18.95
2023-02-24T17:18:27.745Z,4.82
2023-02-24T17:20:55.473Z,4.63
2023-02-24T17:23:23.059Z,5.47
2023-02-24T17:25:53.730Z,5.03
2023-02-24T17:28:21.241Z,5.25
2023-02-24T17:30:48.655Z,5.28
2023-02-24T17:33:16.316Z,5.53
2023-02-24T17:35:44.128Z,5.05
2023-02-24T17:38:19.108Z,5.70
2023-02-24T17:40:47.308Z,4.88
2023-02-24T17:43:14.900Z,5.35
2023-02-24T17:45:45.561Z,5.10
2023-02-24T17:48:14.615Z,5.80
2023-02-24T17:50:43.071Z,5.35
2023-02-24T17:53:10.662Z,5.30
2023-02-24T17:55:37.951Z,5.03
2023-02-24T17:58:05.384Z,5.38
2023-02-24T18:00:32.844Z,5.38
2023-02-24T18:03:02.965Z,4.93
2023-02-24T18:05:31.699Z,5.25
2023-02-24T18:07:59.214Z,5.88
2023-02-24T18:10:27.400Z,7.30
2023-02-24T18:12:54.748Z,5.72
2023-02-24T18:15:22.622Z,5.50
2023-02-24T18:17:50.097Z,5.28
2023-02-24T18:20:17.898Z,5.57
2023-02-24T18:22:45.528Z,6.72
2023-02-24T18:25:13.632Z,7.80
2023-02-24T18:27:41.376Z,6.38
2023-02-24T18:30:10.267Z,5.53
2023-02-24T18:32:44.594Z,5.30
2023-02-24T18:35:12.952Z,5.53
2023-02-24T18:37:40.428Z,4.95
2023-02-24T18:40:08.280Z,5.38
2023-02-24T18:42:35.595Z,6.07
2023-02-24T18:45:03.341Z,5.70
2023-02-24T18:47:30.708Z,5.65
2023-02-24T18:49:58.169Z,5.82
2023-02-24T18:52:25.636Z,6.25
2023-02-24T18:54:53.209Z,6.80
2023-02-24T18:57:20.611Z,6.97
2023-02-24T18:59:50.978Z,7.63
2023-02-24T19:02:18.415Z,7.35
2023-02-24T19:04:46.130Z,6.38
2023-02-24T19:07:13.674Z,5.88
2023-02-24T19:09:42.610Z,5.65
2023-02-24T19:12:09.964Z,5.88
2023-02-24T19:14:37.282Z,6.07
2023-02-24T19:17:04.713Z,6.75
2023-02-24T19:19:32.201Z,6.40
2023-02-24T19:22:00.234Z,5.25
2023-02-24T19:24:28.143Z,4.75
2023-02-24T19:26:56.011Z,5.07
2023-02-24T19:29:23.536Z,5.68
2023-02-24T19:31:54.199Z,4.88
2023-02-24T19:34:22.677Z,6.10
2023-02-24T19:36:50.197Z,5.45
2023-02-24T19:39:18.941Z,5.70
2023-02-24T19:41:48.549Z,6.15
2023-02-24T19:44:17.163Z,6.25
2023-02-24T19:46:44.678Z,7.40
2023-02-24T19:49:11.973Z,6.15
2023-02-24T19:51:39.263Z,7.25
2023-02-24T19:54:06.909Z,8.02
2023-02-24T19:56:36.608Z,11.73
2023-02-24T19:59:05.561Z,6.38
2023-02-24T20:01:33.126Z,6.32
2023-02-24T20:04:02.478Z,6.80
2023-02-24T20:06:36.414Z,5.57
2023-02-24T20:09:21.847Z,11.02
2023-02-24T20:11:50.597Z,7.30
2023-02-24T20:14:19.892Z,6.20
2023-02-24T20:16:47.940Z,7.60
2023-02-24T20:19:15.683Z,7.65
2023-02-24T20:21:43.180Z,8.43
2023-02-24T20:24:13.974Z,8.90
2023-02-24T20:26:43.357Z,10.65
2023-02-24T20:29:11.506Z,13.60
2023-02-24T20:31:40.512Z,10.52
2023-02-24T20:34:09.385Z,10.43
2023-02-24T20:36:37.203Z,10.60
2023-02-24T20:39:06.584Z,10.30
2023-02-24T20:41:34.743Z,10.48
2023-02-24T20:44:02.186Z,9.48
2023-02-24T20:46:31.595Z,10.20
2023-02-24T20:49:05.478Z,9.65
2023-02-24T20:51:34.328Z,9.85
2023-02-24T20:54:01.602Z,8.90
2023-02-24T20:56:34.162Z,9.00
2023-02-24T20:59:04.698Z,9.05
2023-02-24T21:01:33.196Z,9.32
2023-02-24T21:04:01.073Z,9.88
2023-02-24T21:06:29.034Z,8.57
2023-02-24T21:08:57.333Z,9.25
2023-02-24T21:11:25.410Z,8.18
2023-02-24T21:13:53.052Z,9.60
2023-02-24T21:16:21.773Z,10.63
2023-02-24T21:18:50.566Z,10.13
2023-02-24T21:21:19.551Z,10.13
2023-02-24T21:23:47.392Z,9.82
2023-02-24T21:26:14.967Z,9.27
2023-02-24T21:28:42.453Z,10.27
2023-02-24T21:31:13.250Z,9.57
2023-02-24T21:33:41.183Z,9.98
2023-02-24T21:36:13.562Z,10.40
2023-02-24T21:38:41.462Z,10.40
2023-02-24T21:41:13.337Z,10.93
2023-02-24T21:43:41.563Z,10.55
2023-02-24T21:46:09.294Z,11.20
2023-02-24T21:48:37.278Z,11.15
2023-02-24T21:51:06.934Z,11.90
2023-02-24T21:53:35.856Z,11.07
2023-02-24T21:56:16.373Z,9.95
2023-02-24T21:58:58.480Z,11.15
2023-02-24T22:01:34.727Z,10.63
2023-02-24T22:04:04.825Z,10.32
2023-02-24T22:06:34.957Z,11.25
2023-02-24T22:09:04.554Z,11.50
2023-02-24T22:11:35.249Z,11.93
2023-02-24T22:14:03.113Z,11.23
2023-02-24T22:16:30.616Z,11.20
2023-02-24T22:18:58.226Z,12.00
2023-02-24T22:21:27.490Z,11.88
2023-02-24T22:23:57.740Z,12.93
2023-02-24T22:26:26.832Z,12.45
2023-02-24T22:28:55.108Z,11.50
2023-02-24T22:31:26.090Z,11.82
2023-02-24T22:33:54.377Z,12.90
2023-02-24T22:36:25.202Z,11.85
2023-02-24T22:38:57.229Z,12.45
2023-02-24T22:41:31.346Z,12.15
2023-02-24T22:43:59.840Z,13.30
2023-02-24T22:46:33.027Z,14.30
2023-02-24T22:49:00.752Z,13.10
2023-02-24T22:51:28.630Z,13.68
2023-02-24T22:53:56.761Z,14.57
2023-02-24T22:56:26.422Z,13.85
2023-02-24T22:58:56.089Z,14.20
2023-02-24T23:01:26.466Z,16.13
2023-02-24T23:03:54.125Z,14.77
2023-02-24T23:06:24.031Z,14.80
2023-02-24T23:11:24.936Z,13.57
2023-02-24T23:13:52.696Z,14.25
2023-02-24T23:16:27.376Z,14.48
2023-02-24T23:18:58.320Z,13.45
2023-02-24T23:21:31.494Z,14.77
2023-02-24T23:24:00.263Z,14.55
2023-02-24T23:26:31.607Z,14.40
2023-02-24T23:28:59.567Z,14.07
2023-02-24T23:31:27.403Z,14.00
2023-02-24T23:33:55.125Z,14.57
2023-02-24T23:36:24.008Z,13.10
2023-02-24T23:38:52.781Z,13.65
2023-02-24T23:41:20.246Z,12.00
2023-02-24T23:43:47.696Z,11.18
2023-02-24T23:46:15.177Z,11.38
2023-02-24T23:48:42.496Z,11.10
2023-02-24T23:51:13.934Z,11.73
2023-02-24T23:53:43.142Z,11.63
2023-02-24T23:56:31.738Z,10.10
2023-02-24T23:58:59.482Z,9.27
